Time;durP1;ratioP1;P1;durP2;ratioP2;P2;SDS_P1;SDS_P2;PMS_P1;PMS_P2;Temp;Humidity;BMP_temperature;BMP_pressure;BME280_temperature;BME280_humidity;BME280_pressure;Samples;Min_cycle;Max_cycle;Signal;HPM_P1;HPM_P2
2022/08/11 00:01:32;;;;;;;2.30;2.20;;;23.30;30.90;;;;;;20829;6765;117079;-88
2022/08/11 00:04:08;;;;;;;2.70;2.50;;;23.20;30.70;;;;;;20842;6812;117881;-86
2022/08/11 00:06:45;;;;;;;2.60;2.40;;;23.00;31.00;;;;;;20514;6771;307469;-86
2022/08/11 00:09:20;;;;;;;2.40;2.10;;;23.10;31.20;;;;;;20678;6741;292709;-86
2022/08/11 00:11:57;;;;;;;2.10;2.00;;;23.40;30.80;;;;;;20871;6741;116857;-86
2022/08/11 00:14:33;;;;;;;2.40;2.07;;;23.20;30.80;;;;;;20608;6756;276020;-87
2022/08/11 00:17:08;;;;;;;2.20;2.00;;;23.30;31.00;;;;;;20769;6745;117779;-87
2022/08/11 00:19:44;;;;;;;2.03;1.93;;;23.10;31.00;;;;;;20745;6771;117509;-86
2022/08/11 00:22:20;;;;;;;2.50;2.00;;;22.70;31.20;;;;;;20653;6756;299216;-87
2022/08/11 00:24:56;;;;;;;2.17;2.00;;;23.00;31.60;;;;;;20685;6741;334406;-87
2022/08/11 00:27:32;;;;;;;2.30;2.20;;;23.20;31.30;;;;;;20672;6812;119148;-87
2022/08/11 00:30:08;;;;;;;2.33;2.03;;;23.10;31.50;;;;;;20680;6741;308674;-88
2022/08/11 00:32:44;;;;;;;2.50;2.30;;;23.10;31.50;;;;;;20912;6741;119973;-87
2022/08/11 00:35:19;;;;;;;2.73;2.33;;;22.90;31.40;;;;;;20677;6741;308176;-86
2022/08/11 00:37:55;;;;;;;8.30;2.40;;;23.00;31.60;;;;;;20911;6741;117090;-87
2022/08/11 00:40:41;;;;;;;3.17;2.10;;;22.80;31.50;;;;;;20678;6741;309744;-87
2022/08/11 00:43:22;;;;;;;3.07;2.10;;;22.90;31.70;;;;;;20913;6741;116884;-87
2022/08/11 00:46:24;;;;;;;2.23;2.03;;;22.70;31.70;;;;;;20586;6756;312795;-86
2022/08/11 00:49:27;;;;;;;2.43;2.27;;;22.80;31.90;;;;;;20888;6751;117216;-86
2022/08/11 00:52:09;;;;;;;2.40;2.30;;;22.60;31.90;;;;;;20739;6806;116942;-86
2022/08/11 00:54:57;;;;;;;2.50;2.37;;;22.30;32.20;;;;;;20866;6756;120100;-87
2022/08/11 00:57:50;;;;;;;2.67;2.27;;;22.00;32.50;;;;;;20188;6868;119855;-87
2022/08/11 01:00:25;;;;;;;2.35;2.25;;;21.80;32.60;;;;;;20671;6756;335567;-86
2022/08/11 01:03:17;;;;;;;2.27;2.07;;;22.20;33.10;;;;;;20654;6756;280808;-87
2022/08/11 01:06:21;;;;;;;3.17;2.20;;;22.50;32.60;;;;;;20798;6757;120213;-88
2022/08/11 01:09:29;;;;;;;3.23;2.20;;;22.40;32.50;;;;;;20831;6737;117825;-86
2022/08/11 01:12:08;;;;;;;3.27;2.50;;;22.00;32.70;;;;;;20908;6737;67532;-90
2022/08/11 01:15:12;;;;;;;2.90;2.00;;;22.00;33.60;;;;;;20703;6738;336096;-91
2022/08/11 01:17:51;;;;;;;2.40;2.20;;;21.90;33.20;;;;;;20822;6741;118210;-90
2022/08/11 01:20:30;;;;;;;2.43;2.07;;;21.90;33.10;;;;;;20909;6741;117547;-88
2022/08/11 01:23:30;;;;;;;2.33;2.20;;;21.90;33.40;;;;;;20679;6797;276750;-88
2022/08/11 01:26:11;;;;;;;2.43;2.20;;;21.90;33.40;;;;;;20242;6797;280811;-88
2022/08/11 01:28:57;;;;;;;2.30;2.10;;;22.20;32.90;;;;;;20555;6771;332251;-88
2022/08/11 01:32:15;;;;;;;2.40;2.20;;;22.50;32.70;;;;;;20561;6827;278645;-88
2022/08/11 01:35:28;;;;;;;3.57;2.20;;;22.60;32.50;;;;;;20629;6762;276900;-87
2022/08/11 01:38:31;;;;;;;2.40;2.30;;;22.70;32.50;;;;;;20538;6790;302158;-90
2022/08/11 01:41:23;;;;;;;2.60;2.40;;;22.80;32.50;;;;;;20650;6760;279822;-90
2022/08/11 01:47:50;;;;;;;2.63;2.43;;;22.40;32.50;;;;;;20652;6790;118097;-88
2022/08/11 01:50:39;;;;;;;3.37;2.43;;;21.80;33.00;;;;;;20801;6775;119218;-90
2022/08/11 01:53:37;;;;;;;3.57;2.37;;;21.40;33.40;;;;;;20847;6763;117597;-88
2022/08/11 01:56:32;;;;;;;3.00;2.40;;;21.10;33.70;;;;;;20824;6748;117325;-89
2022/08/11 01:59:14;;;;;;;2.33;2.20;;;21.00;34.10;;;;;;20936;6734;116777;-89
2022/08/11 02:02:13;;;;;;;2.20;2.10;;;20.80;34.20;;;;;;20854;6752;117325;-89
2022/08/11 02:04:48;;;;;;;2.70;2.50;;;20.70;34.50;;;;;;20580;6767;307532;-89
2022/08/11 02:07:37;;;;;;;3.57;2.47;;;21.10;35.10;;;;;;20609;6887;122068;-88
2022/08/11 02:13:42;;;;;;;2.50;2.40;;;20.90;34.70;;;;;;20668;6761;305578;-88
2022/08/11 02:16:20;;;;;;;2.83;2.28;;;21.30;35.00;;;;;;20487;6775;340677;-88
2022/08/11 02:25:03;;;;;;;2.40;2.20;;;21.80;34.10;;;;;;20875;6750;120837;-89
2022/08/11 02:27:42;;;;;;;2.40;2.20;;;21.60;34.10;;;;;;20608;6763;339730;-89
2022/08/11 02:30:19;;;;;;;2.70;2.50;;;21.70;34.40;;;;;;20662;6754;278033;-88
2022/08/11 02:35:57;;;;;;;2.60;2.40;;;22.50;34.10;;;;;;20636;6738;309113;-88
2022/08/11 02:39:06;;;;;;;2.95;2.50;;;22.60;33.60;;;;;;20738;6738;275844;-89
2022/08/11 02:45:04;;;;;;;2.80;2.60;;;22.10;34.00;;;;;;20640;6756;307177;-88
2022/08/11 02:51:12;;;;;;;2.40;2.30;;;21.70;34.30;;;;;;20890;6747;120893;-88
2022/08/11 02:54:24;;;;;;;2.63;2.43;;;21.20;34.70;;;;;;20714;6733;286521;-88
2022/08/11 02:57:17;;;;;;;2.90;2.60;;;21.10;34.80;;;;;;20747;6751;117361;-88
2022/08/11 02:59:56;;;;;;;2.95;2.75;;;21.10;34.80;;;;;;20667;6745;337494;-89
2022/08/11 03:02:47;;;;;;;3.00;2.70;;;21.30;35.00;;;;;;20897;6745;116930;-88
2022/08/11 03:05:30;;;;;;;3.83;2.60;;;21.20;34.90;;;;;;20733;6725;317336;-88
2022/08/11 03:08:15;;;;;;;2.50;2.30;;;21.40;35.00;;;;;;20964;6725;116945;-88
2022/08/11 03:17:28;;;;;;;2.70;2.50;;;21.30;35.20;;;;;;20850;6729;117082;-88
2022/08/11 03:20:14;;;;;;;2.63;2.47;;;21.20;35.00;;;;;;20956;6729;117082;-89
2022/08/11 03:23:28;;;;;;;2.77;2.53;;;20.90;35.30;;;;;;20609;6786;116787;-88
2022/08/11 03:26:24;;;;;;;3.65;2.70;;;20.70;35.50;;;;;;20632;6747;308151;-88
2022/08/11 03:29:03;;;;;;;2.97;2.67;;;21.10;35.60;;;;;;20717;6735;305792;-89
2022/08/11 03:31:46;;;;;;;2.60;2.50;;;21.50;35.10;;;;;;20913;6736;116881;-88
2022/08/11 03:34:22;;;;;;;3.80;2.50;;;21.10;35.30;;;;;;20997;6717;119701;-87
2022/08/11 03:37:11;;;;;;;3.00;2.70;;;21.10;35.20;;;;;;20612;6718;310542;-88
2022/08/11 03:39:56;;;;;;;4.50;2.83;;;21.30;35.50;;;;;;20951;6726;116764;-88
2022/08/11 03:42:38;;;;;;;2.90;2.70;;;21.20;35.20;;;;;;20750;6726;304785;-88
2022/08/11 03:45:18;;;;;;;3.00;2.63;;;21.30;35.80;;;;;;20953;6726;116720;-88
2022/08/11 03:47:59;;;;;;;3.15;2.80;;;21.30;35.30;;;;;;20766;6718;275767;-88
2022/08/11 03:51:06;;;;;;;3.30;3.00;;;21.40;35.30;;;;;;20999;6718;117268;-88
2022/08/11 03:54:01;;;;;;;2.60;2.50;;;21.50;35.50;;;;;;20694;6718;275323;-88
2022/08/11 03:57:13;;;;;;;2.95;2.67;;;21.50;35.50;;;;;;20667;6718;305998;-88
2022/08/11 04:00:28;;;;;;;3.03;2.83;;;21.80;35.10;;;;;;20770;6718;307015;-88
2022/08/11 04:03:37;;;;;;;3.07;2.97;;;21.90;34.70;;;;;;20999;6718;119113;-88
2022/08/11 04:06:26;;;;;;;3.20;3.10;;;21.50;34.80;;;;;;20932;6718;117324;-88
2022/08/11 04:09:45;;;;;;;3.20;2.90;;;21.10;35.30;;;;;;20962;6726;116807;-88
2022/08/11 04:12:57;;;;;;;3.20;2.93;;;21.10;36.00;;;;;;20751;6726;304836;-87
2022/08/11 04:16:02;;;;;;;2.90;2.70;;;21.10;36.00;;;;;;20708;6726;277106;-89
2022/08/11 04:19:09;;;;;;;3.93;2.90;;;21.50;35.70;;;;;;20779;6718;305130;-88
2022/08/11 04:22:03;;;;;;;3.47;2.80;;;21.70;35.40;;;;;;20958;6771;118818;-88
2022/08/11 04:24:42;;;;;;;3.17;2.87;;;21.40;35.40;;;;;;20757;6718;276034;-88
2022/08/11 04:27:28;;;;;;;3.67;3.37;;;21.40;35.50;;;;;;20646;6720;313780;-88
2022/08/11 04:30:13;;;;;;;3.40;3.10;;;21.60;35.30;;;;;;20980;6720;117491;-88
2022/08/11 04:33:01;;;;;;;3.13;2.93;;;21.40;35.40;;;;;;20990;6718;117286;-88
2022/08/11 04:35:54;;;;;;;2.80;2.70;;;21.00;35.70;;;;;;20929;6720;117298;-88
2022/08/11 04:38:53;;;;;;;3.53;3.00;;;20.70;36.00;;;;;;20755;6731;307470;-88
2022/08/11 04:45:37;;;;;;;2.77;2.67;;;20.90;36.00;;;;;;21006;6720;117596;-88
2022/08/11 05:08:09;;;;;;;3.62;3.40;;;20.00;37.40;;;;;;20811;6638;306359;-88
2022/08/11 05:10:52;;;;;;;3.47;3.27;;;20.60;37.60;;;;;;20969;6720;116785;-89
2022/08/11 05:37:33;;;;;;;4.30;3.20;;;20.30;37.60;;;;;;20811;6747;119698;-88
2022/08/11 05:57:45;;;;;;;3.63;3.33;;;21.40;37.00;;;;;;20921;6746;116855;-88
2022/08/11 06:00:23;;;;;;;7.20;5.20;;;21.20;37.00;;;;;;20747;6741;304734;-89
2022/08/11 06:02:59;;;;;;;5.30;4.37;;;21.40;37.00;;;;;;20964;6741;116920;-88
2022/08/11 06:05:33;;;;;;;4.03;3.37;;;21.50;36.90;;;;;;20916;6741;126660;-88
2022/08/11 06:08:09;;;;;;;4.03;3.40;;;21.30;36.80;;;;;;20948;6756;116691;-88
2022/08/11 06:10:45;;;;;;;3.47;3.17;;;21.60;37.20;;;;;;20767;6741;300810;-88
2022/08/11 06:13:22;;;;;;;3.30;3.00;;;21.60;37.20;;;;;;20864;6739;119002;-88
2022/08/11 06:15:56;;;;;;;3.50;3.13;;;21.70;37.20;;;;;;20576;6763;117221;-88
2022/08/11 06:18:33;;;;;;;7.33;4.00;;;21.70;37.10;;;;;;20872;6772;116360;-89
2022/08/11 06:21:10;;;;;;;4.10;3.67;;;21.60;37.20;;;;;;20755;6754;306952;-88
2022/08/11 06:23:46;;;;;;;5.63;4.30;;;21.90;36.80;;;;;;20627;6769;277565;-88
2022/08/11 06:26:21;;;;;;;4.10;3.70;;;22.40;36.10;;;;;;20849;6749;117061;-89
2022/08/11 06:28:56;;;;;;;3.83;2.97;;;22.50;36.20;;;;;;20712;6738;308763;-89
2022/08/11 06:31:32;;;;;;;3.40;3.20;;;22.70;36.00;;;;;;20620;6761;336177;-88
2022/08/11 06:34:08;;;;;;;3.10;2.87;;;23.00;35.90;;;;;;20890;6801;118392;-87
2022/08/11 06:36:48;;;;;;;3.10;2.90;;;23.00;35.90;;;;;;20788;6746;117274;-88
2022/08/11 06:39:28;;;;;;;3.50;3.20;;;22.90;36.10;;;;;;20933;6743;119008;-88
2022/08/11 06:42:09;;;;;;;3.72;3.28;;;22.80;36.30;;;;;;20690;6743;305713;-88
2022/08/11 06:44:51;;;;;;;3.33;3.03;;;23.10;35.80;;;;;;20821;6757;118237;-88
2022/08/11 06:47:27;;;;;;;3.50;3.20;;;23.20;35.70;;;;;;20533;6759;287190;-88
2022/08/11 06:52:59;;;;;;;3.63;3.20;;;24.20;34.60;;;;;;20657;6762;276482;-89
2022/08/11 07:01:45;;;;;;;3.23;2.93;;;25.60;33.20;;;;;;20633;6784;307045;-88
2022/08/11 07:04:17;;;;;;;5.22;3.00;;;25.80;32.50;;;;;;20623;6730;304816;-88
2022/08/11 07:16:22;;;;;;;4.10;3.00;;;26.60;31.60;;;;;;20857;6732;117286;-88
2022/08/11 07:30:48;;;;;;;5.93;5.07;;;26.40;31.90;;;;;;20569;6787;279014;-88
2022/08/11 07:33:25;;;;;;;5.70;3.40;;;26.70;31.60;;;;;;20759;6793;116762;-88
2022/08/11 07:35:59;;;;;;;3.50;3.20;;;26.80;31.70;;;;;;20707;6777;117863;-89
2022/08/11 07:38:45;;;;;;;3.50;3.20;;;26.70;31.90;;;;;;20876;6766;117281;-89
2022/08/11 07:41:23;;;;;;;3.30;3.10;;;26.70;32.10;;;;;;20570;6777;308411;-89
2022/08/11 07:44:10;;;;;;;3.77;3.47;;;27.10;31.20;;;;;;20824;6777;117447;-89
2022/08/11 07:52:39;;;;;;;4.10;3.10;;;28.20;29.90;;;;;;20594;6772;308445;-89
2022/08/11 07:55:12;;;;;;;4.10;3.20;;;28.10;29.80;;;;;;20763;6795;118021;-89
2022/08/11 08:18:21;;;;;;;2.97;2.77;;;28.50;29.40;;;;;;20893;6738;117526;-89
2022/08/11 08:21:10;;;;;;;3.63;2.83;;;28.50;29.40;;;;;;20645;6748;307567;-89
2022/08/11 08:23:33;;;;;;;3.20;3.00;;;28.80;28.50;;;;;;20645;6753;305906;-89
2022/08/11 08:26:58;;;;;;;3.20;3.00;;;29.30;28.40;;;;;;20837;6738;122771;-89
2022/08/11 08:28:46;;;;;;;3.60;2.90;;;29.40;28.40;;;;;;20699;6638;66625;-89
2022/08/11 08:31:42;;;;;;;3.27;3.10;;;29.30;28.60;;;;;;21090;6638;118143;-93
2022/08/11 08:34:27;;;;;;;;;;;;;;;;;;;;;
2022/08/11 08:36:54;;;;;;;4.67;3.00;;;29.70;28.20;;;;;;20629;6742;116565;-90
2022/08/11 08:39:30;;;;;;;3.27;2.97;;;29.80;28.00;;;;;;20579;6753;116403;-89
2022/08/11 08:55:51;;;;;;;2.80;2.70;;;31.00;26.50;;;;;;20900;6529;71818;-88
2022/08/11 08:58:16;;;;;;;6.53;2.97;;;30.90;26.60;;;;;;20674;6861;117762;-88
2022/08/11 09:00:44;;;;;;;4.83;3.33;;;30.60;26.90;;;;;;20680;6867;117954;-88
2022/08/11 09:03:09;;;;;;;2.90;2.70;;;30.60;26.90;;;;;;20692;6867;117809;-89
2022/08/11 09:05:35;;;;;;;3.28;2.80;;;30.50;27.00;;;;;;20449;6868;289772;-88
2022/08/11 09:08:01;;;;;;;2.87;2.67;;;30.90;26.30;;;;;;20641;6882;118301;-88
2022/08/11 09:10:29;;;;;;;2.73;2.57;;;30.80;26.20;;;;;;20397;6895;294243;-88
2022/08/11 09:12:52;;;;;;;4.10;2.50;;;31.00;24.70;;;;;;20377;6895;312264;-88
2022/08/11 09:15:18;;;;;;;3.20;2.30;;;31.20;24.00;;;;;;20397;6895;280127;-88
2022/08/11 09:17:44;;;;;;;2.37;2.23;;;31.30;23.90;;;;;;20573;6895;120614;-88
2022/08/11 09:20:16;;;;;;;3.13;2.50;;;31.20;24.70;;;;;;20412;6881;296938;-88
2022/08/11 09:28:12;;;;;;;2.67;2.47;;;31.30;23.60;;;;;;20371;6894;339464;-89
2022/08/11 09:30:39;;;;;;;2.23;2.13;;;31.40;23.60;;;;;;20607;6894;118465;-89
2022/08/11 09:33:05;;;;;;;4.00;2.50;;;31.30;24.00;;;;;;20396;6894;310227;-89
2022/08/11 09:35:32;;;;;;;2.30;2.20;;;31.40;24.10;;;;;;20559;6894;119499;-89
2022/08/11 09:40:43;;;;;;;3.20;2.20;;;31.20;24.00;;;;;;20387;6895;303360;-89
2022/08/11 09:45:55;;;;;;;2.20;2.10;;;31.40;23.50;;;;;;20393;6895;313159;-89
2022/08/11 09:48:23;;;;;;;2.20;2.10;;;31.70;23.20;;;;;;20415;6882;281037;-90
2022/08/11 09:50:50;;;;;;;4.77;2.20;;;31.90;23.00;;;;;;20674;6868;117980;-89
2022/08/11 09:53:16;;;;;;;2.95;2.37;;;31.80;23.30;;;;;;20428;6876;309510;-89
2022/08/11 09:55:45;;;;;;;2.90;1.90;;;31.90;23.60;;;;;;20601;6888;118225;-90
2022/08/11 09:58:13;;;;;;;2.33;2.00;;;31.90;23.40;;;;;;20387;6888;313092;-90
2022/08/11 10:00:41;;;;;;;2.77;2.23;;;31.90;22.50;;;;;;20656;6874;117476;-89
2022/08/11 10:03:10;;;;;;;3.37;1.90;;;31.90;22.90;;;;;;20668;6874;117363;-89
2022/08/11 10:08:21;;;;;;;2.67;2.10;;;31.70;22.90;;;;;;20644;6879;117911;-89
2022/08/11 10:10:47;;;;;;;1.77;1.67;;;31.50;22.80;;;;;;20660;6874;117757;-89
2022/08/11 10:13:16;;;;;;;2.00;1.90;;;31.40;22.80;;;;;;20452;6874;310118;-89
2022/08/11 10:15:42;;;;;;;2.23;1.80;;;31.60;21.90;;;;;;20436;6870;299910;-89
2022/08/11 10:20:55;;;;;;;2.00;1.90;;;32.10;20.70;;;;;;20682;6870;117491;-89
2022/08/11 10:28:52;;;;;;;2.00;1.90;;;31.90;21.70;;;;;;20632;6887;117652;-89
2022/08/11 10:34:03;;;;;;;2.20;1.80;;;31.50;22.00;;;;;;20685;6870;117598;-89
2022/08/11 10:36:42;;;;;;;2.20;2.10;;;31.50;22.10;;;;;;20679;6870;117627;-89
2022/08/11 10:39:04;;;;;;;2.50;1.83;;;31.40;22.00;;;;;;20658;6870;117604;-89
2022/08/11 10:44:15;;;;;;;2.10;1.80;;;31.30;22.20;;;;;;20473;6864;329097;-89
2022/08/11 10:49:26;;;;;;;2.20;1.60;;;31.80;21.70;;;;;;20494;6864;278967;-89
2022/08/11 11:00:14;;;;;;;5.13;2.03;;;32.60;21.10;;;;;;20486;6864;312060;-89
2022/08/11 11:02:36;;;;;;;2.23;1.63;;;32.90;21.00;;;;;;20423;6878;300781;-89
2022/08/11 11:05:25;;;;;;;2.13;2.03;;;32.80;21.00;;;;;;20689;6864;117666;-90
2022/08/11 11:08:51;;;;;;;2.20;1.80;;;32.80;21.00;;;;;;20420;6875;280528;-88
2022/08/11 11:10:36;;;;;;;2.30;1.60;;;32.70;20.60;;;;;;20395;6875;281256;-89
2022/08/11 11:18:34;;;;;;;1.93;1.60;;;32.60;20.10;;;;;;20673;6874;117588;-89
2022/08/11 11:21:00;;;;;;;1.70;1.60;;;32.40;20.30;;;;;;20447;6875;279916;-89
2022/08/11 11:23:32;;;;;;;1.90;1.80;;;32.30;20.20;;;;;;20654;6875;117995;-89
2022/08/11 11:26:13;;;;;;;1.73;1.70;;;32.30;20.40;;;;;;20652;6875;118178;-88
2022/08/11 11:28:49;;;;;;;1.93;1.80;;;32.10;20.50;;;;;;20450;6875;309238;-89
2022/08/11 11:31:50;;;;;;;3.57;1.80;;;32.20;20.80;;;;;;20665;6875;117463;-88
2022/08/11 11:34:48;;;;;;;1.90;1.80;;;32.20;20.70;;;;;;19423;7223;292139;-89
2022/08/11 11:37:16;;;;;;;2.07;1.90;;;32.30;20.20;;;;;;20276;6875;283336;-89
2022/08/11 11:39:40;;;;;;;1.80;1.70;;;32.40;21.00;;;;;;20637;6875;118038;-89
2022/08/11 11:42:06;;;;;;;2.33;1.90;;;32.30;21.10;;;;;;20666;6875;117891;-89
2022/08/11 11:44:32;;;;;;;2.17;2.07;;;32.00;21.40;;;;;;20656;6875;118511;-89
2022/08/11 11:46:58;;;;;;;1.97;1.87;;;31.90;21.30;;;;;;20456;6875;280625;-89
2022/08/11 11:49:23;;;;;;;2.00;1.77;;;32.10;21.60;;;;;;20458;6875;309610;-89
2022/08/11 11:51:51;;;;;;;3.60;1.67;;;32.40;20.50;;;;;;20642;6875;186260;-89
2022/08/11 11:54:14;;;;;;;2.67;2.00;;;32.50;20.60;;;;;;20658;6875;117752;-89
2022/08/11 11:56:40;;;;;;;2.27;2.07;;;32.30;20.20;;;;;;20661;6875;118137;-89
2022/08/11 12:01:51;;;;;;;3.75;1.77;;;32.00;20.90;;;;;;20442;6875;307376;-87
2022/08/11 12:04:18;;;;;;;2.87;2.00;;;32.10;20.90;;;;;;20672;6875;120600;-88
2022/08/11 12:06:43;;;;;;;3.90;1.90;;;32.10;21.40;;;;;;20448;6875;309567;-89
2022/08/11 12:09:10;;;;;;;2.22;1.70;;;32.50;20.00;;;;;;20456;6875;310098;-89
2022/08/11 12:14:22;;;;;;;1.80;1.70;;;32.50;20.10;;;;;;20477;6875;309660;-89
2022/08/11 12:16:47;;;;;;;1.90;1.80;;;32.50;19.80;;;;;;20446;6875;340211;-88
2022/08/11 12:19:13;;;;;;;2.60;1.50;;;32.70;19.90;;;;;;20457;6875;280844;-89
2022/08/11 12:27:19;;;;;;;2.87;1.70;;;32.80;19.90;;;;;;20657;6875;117561;-89
2022/08/11 12:29:35;;;;;;;1.70;1.60;;;32.80;20.20;;;;;;20652;6874;117449;-89
2022/08/11 12:32:01;;;;;;;1.97;1.80;;;32.70;20.10;;;;;;20673;6875;118135;-89
2022/08/11 12:34:26;;;;;;;1.67;1.58;;;32.30;19.90;;;;;;20435;6875;298554;-89
2022/08/11 12:36:58;;;;;;;1.90;1.80;;;32.30;20.30;;;;;;20445;6875;313869;-89
2022/08/11 12:45:28;;;;;;;2.08;1.90;;;32.40;19.50;;;;;;20458;6875;309627;-89
2022/08/11 12:53:28;;;;;;;2.43;1.80;;;32.60;19.90;;;;;;20668;6875;119438;-90
2022/08/11 12:58:40;;;;;;;3.10;1.90;;;32.40;20.50;;;;;;20473;6875;280503;-89
2022/08/11 13:06:36;;;;;;;2.20;1.70;;;32.80;19.50;;;;;;20456;6875;280227;-89
2022/08/11 13:09:02;;;;;;;3.20;1.80;;;32.90;19.60;;;;;;20462;6875;309623;-89
2022/08/11 13:14:13;;;;;;;2.20;2.00;;;32.80;19.30;;;;;;20665;6875;117660;-89
2022/08/11 13:19:25;;;;;;;1.80;1.70;;;32.00;20.10;;;;;;20669;6875;120082;-89
2022/08/11 13:21:50;;;;;;;1.80;1.70;;;31.90;20.00;;;;;;20643;6875;117674;-89
2022/08/11 13:24:17;;;;;;;2.93;1.90;;;31.80;20.30;;;;;;20659;6875;117780;-89
2022/08/11 13:26:44;;;;;;;1.85;1.75;;;31.60;20.50;;;;;;20439;6875;312739;-89
2022/08/11 13:29:09;;;;;;;3.63;1.97;;;31.80;20.30;;;;;;20652;6875;120542;-88
2022/08/11 13:31:35;;;;;;;2.13;1.90;;;31.80;20.50;;;;;;20636;6875;120225;-89
2022/08/11 13:34:02;;;;;;;1.90;1.80;;;31.70;20.80;;;;;;20655;6875;118277;-88
2022/08/11 13:36:27;;;;;;;2.30;2.10;;;31.50;20.80;;;;;;20652;6875;118220;-88
2022/08/11 13:38:52;;;;;;;2.03;1.80;;;31.40;20.80;;;;;;20667;6875;117710;-89
2022/08/11 13:41:37;;;;;;;4.33;1.60;;;31.30;20.90;;;;;;20670;6874;118104;-88
2022/08/11 13:44:03;;;;;;;2.10;2.00;;;31.20;20.90;;;;;;20668;6875;117640;-89
2022/08/11 13:46:28;;;;;;;3.80;1.70;;;31.10;20.90;;;;;;20661;6875;117648;-89
2022/08/11 13:48:54;;;;;;;4.80;1.80;;;31.10;21.10;;;;;;20664;6875;117444;-89
2022/08/11 13:51:29;;;;;;;3.55;1.92;;;31.00;20.80;;;;;;20453;6875;279850;-89
2022/08/11 13:53:55;;;;;;;1.57;1.50;;;31.20;20.60;;;;;;20674;6875;118158;-89
2022/08/11 13:56:20;;;;;;;1.80;1.70;;;31.30;20.60;;;;;;20591;6875;117647;-90
2022/08/11 13:58:47;;;;;;;1.95;1.65;;;31.20;20.50;;;;;;20473;6875;279480;-88
2022/08/11 14:01:14;;;;;;;2.30;1.47;;;31.40;19.80;;;;;;20725;6875;117942;-88
2022/08/11 14:03:40;;;;;;;1.80;1.70;;;31.40;19.80;;;;;;20716;6875;117051;-89
2022/08/11 14:06:05;;;;;;;1.80;1.63;;;31.30;20.10;;;;;;20540;6946;68579;-89
2022/08/11 14:08:31;;;;;;;2.57;1.90;;;31.10;20.40;;;;;;20308;6946;281327;-90
2022/08/11 14:13:44;;;;;;;1.90;1.80;;;31.50;20.90;;;;;;20504;6946;117876;-90
2022/08/11 14:16:19;;;;;;;2.27;1.80;;;31.50;20.80;;;;;;20452;6946;120659;-89
2022/08/11 14:18:45;;;;;;;2.57;1.97;;;31.40;20.90;;;;;;20192;6946;285591;-89
2022/08/11 14:23:59;;;;;;;2.00;1.80;;;31.80;20.30;;;;;;20241;6946;282060;-89
2022/08/11 14:26:27;;;;;;;1.80;1.63;;;32.10;19.90;;;;;;20464;6946;118060;-89
2022/08/11 14:29:07;;;;;;;2.30;1.70;;;32.00;20.00;;;;;;20456;6946;118352;-89
2022/08/11 14:31:31;;;;;;;2.47;1.80;;;31.70;20.20;;;;;;20213;6946;314592;-91
2022/08/11 14:33:58;;;;;;;1.83;1.70;;;31.70;20.50;;;;;;20462;6946;118572;-89
2022/08/11 14:36:22;;;;;;;1.60;1.60;;;31.70;20.70;;;;;;20440;6946;117943;-89
2022/08/11 14:38:48;;;;;;;1.95;1.85;;;31.50;20.90;;;;;;20465;6946;117970;-90
2022/08/11 14:47:04;;;;;;;3.00;2.00;;;31.80;21.00;;;;;;20249;6946;321528;-88
2022/08/11 14:49:33;;;;;;;2.30;1.80;;;32.00;20.80;;;;;;20440;6946;118637;-90
2022/08/11 14:51:58;;;;;;;2.03;1.90;;;31.90;20.70;;;;;;20448;6945;118312;-89
2022/08/11 14:57:09;;;;;;;1.83;1.70;;;31.60;20.50;;;;;;20245;6946;323898;-89
2022/08/11 14:59:36;;;;;;;2.10;1.97;;;32.00;20.90;;;;;;20232;6946;282862;-89
2022/08/11 15:04:47;;;;;;;3.27;1.80;;;31.90;20.90;;;;;;20473;6946;120914;-89
2022/08/11 15:07:12;;;;;;;2.17;2.07;;;31.60;21.10;;;;;;20474;6946;118278;-90
2022/08/11 15:09:39;;;;;;;3.83;1.80;;;31.40;21.10;;;;;;20452;6946;118007;-91
2022/08/11 15:12:08;;;;;;;3.93;1.90;;;31.20;21.10;;;;;;20439;6946;118128;-89
2022/08/11 15:17:19;;;;;;;6.33;1.80;;;30.90;21.00;;;;;;20460;6946;118932;-90
2022/08/11 15:25:18;;;;;;;1.80;1.70;;;31.00;20.80;;;;;;20456;6946;118881;-90
2022/08/11 15:38:46;;;;;;;2.03;1.93;;;30.80;21.40;;;;;;20465;6946;118567;-90
2022/08/11 15:46:49;;;;;;;2.93;1.90;;;31.20;20.90;;;;;;20452;6946;119059;-89
2022/08/11 15:49:15;;;;;;;1.80;1.70;;;31.10;20.90;;;;;;20428;6946;123433;-89
2022/08/11 15:51:44;;;;;;;1.85;1.75;;;30.70;21.30;;;;;;20257;6946;120307;-90
2022/08/11 15:54:14;;;;;;;1.90;1.75;;;30.70;21.30;;;;;;20237;6946;343067;-89
2022/08/11 15:56:40;;;;;;;1.90;1.80;;;31.10;20.90;;;;;;20234;6946;311875;-87
2022/08/11 16:04:36;;;;;;;2.50;2.03;;;31.20;20.90;;;;;;20255;6944;282472;-89
2022/08/11 16:07:15;;;;;;;2.97;2.00;;;31.40;20.50;;;;;;20248;6946;313180;-89
2022/08/11 16:09:43;;;;;;;2.00;1.90;;;31.50;20.60;;;;;;20433;6946;119238;-89
2022/08/11 16:12:09;;;;;;;2.23;2.07;;;31.20;20.50;;;;;;20438;6946;118110;-90
2022/08/11 16:17:20;;;;;;;4.37;2.00;;;30.90;21.00;;;;;;20256;6946;339636;-89
2022/08/11 16:19:47;;;;;;;2.10;1.70;;;31.10;20.80;;;;;;20431;6946;118243;-89
2022/08/11 16:22:14;;;;;;;3.37;1.70;;;31.10;20.90;;;;;;20463;6946;117604;-89
2022/08/11 16:24:43;;;;;;;1.95;1.75;;;30.70;20.90;;;;;;20223;6946;293416;-90
2022/08/11 16:27:06;;;;;;;1.90;1.80;;;30.80;20.70;;;;;;20238;6946;284504;-89
2022/08/11 16:29:32;;;;;;;2.20;2.03;;;30.80;20.60;;;;;;20440;6946;154334;-92
2022/08/11 16:32:17;;;;;;;3.43;1.80;;;30.80;20.60;;;;;;20453;6946;120035;-89
2022/08/11 16:40:28;;;;;;;2.27;1.97;;;30.50;21.00;;;;;;20465;6946;120468;-89
2022/08/11 16:48:26;;;;;;;3.20;1.80;;;30.90;20.80;;;;;;20247;6946;315282;-89
2022/08/11 16:50:50;;;;;;;2.27;2.03;;;30.90;20.60;;;;;;20451;6946;117973;-90
2022/08/11 16:53:19;;;;;;;3.57;2.17;;;30.70;20.70;;;;;;20464;6946;118790;-92
2022/08/11 16:55:45;;;;;;;2.37;1.93;;;30.40;21.10;;;;;;20231;6946;312972;-89
2022/08/11 17:00:57;;;;;;;3.43;2.00;;;30.30;21.10;;;;;;20457;6946;118041;-89
2022/08/11 17:14:36;;;;;;;3.47;1.87;;;29.80;21.70;;;;;;20426;6945;118519;-91
2022/08/11 17:17:03;;;;;;;3.20;1.80;;;29.60;21.90;;;;;;20444;6946;118010;-89
2022/08/11 17:19:29;;;;;;;2.10;2.00;;;29.30;21.80;;;;;;20416;6946;118300;-88
2022/08/11 17:24:41;;;;;;;1.90;1.80;;;29.10;21.70;;;;;;20463;6946;118191;-89
2022/08/11 17:27:07;;;;;;;1.80;1.70;;;29.10;21.70;;;;;;20481;6946;120032;-89
2022/08/11 17:29:36;;;;;;;4.00;2.00;;;29.00;21.80;;;;;;20491;6946;118368;-91
2022/08/11 17:37:34;;;;;;;1.93;1.93;;;29.70;21.50;;;;;;20484;6946;150396;-89
2022/08/11 17:39:59;;;;;;;2.10;1.87;;;29.60;22.00;;;;;;20297;6946;296584;-89
2022/08/11 17:50:43;;;;;;;1.73;1.73;;;29.40;21.10;;;;;;20510;6946;117845;-89
2022/08/11 18:01:24;;;;;;;5.80;2.00;;;28.60;21.60;;;;;;20512;6946;117039;-89
2022/08/11 18:03:50;;;;;;;2.10;1.83;;;28.50;21.80;;;;;;20501;6946;118174;-89
2022/08/11 18:06:18;;;;;;;3.73;1.80;;;28.40;21.90;;;;;;20574;6726;110763;-93
